sensor_id;sensor_type;location;lat;lon;timestamp;P1;durP1;ratioP1;P2;durP2;ratioP2
16450;SDS011;12243;42.708;23.310;2023-04-03T00:01:44;8.07;;;5.53;;
16450;SDS011;12243;42.708;23.310;2023-04-03T00:04:12;6.10;;;4.90;;
16450;SDS011;12243;42.708;23.310;2023-04-03T00:06:41;7.40;;;5.47;;
16450;SDS011;12243;42.708;23.310;2023-04-03T00:09:08;9.87;;;5.80;;
16450;SDS011;12243;42.708;23.310;2023-04-03T00:11:36;9.87;;;6.23;;
16450;SDS011;12243;42.708;23.310;2023-04-03T00:14:03;10.03;;;6.13;;
16450;SDS011;12243;42.708;23.310;2023-04-03T00:16:30;13.10;;;7.30;;
16450;SDS011;12243;42.708;23.310;2023-04-03T00:18:57;12.40;;;7.30;;
16450;SDS011;12243;42.708;23.310;2023-04-03T00:21:24;14.60;;;7.50;;
16450;SDS011;12243;42.708;23.310;2023-04-03T00:23:53;10.37;;;6.67;;
16450;SDS011;12243;42.708;23.310;2023-04-03T00:26:20;10.83;;;6.70;;
16450;SDS011;12243;42.708;23.310;2023-04-03T00:28:47;11.90;;;6.77;;
16450;SDS011;12243;42.708;23.310;2023-04-03T00:31:14;10.13;;;7.17;;
16450;SDS011;12243;42.708;23.310;2023-04-03T00:33:42;11.10;;;6.60;;
16450;SDS011;12243;42.708;23.310;2023-04-03T00:36:09;10.27;;;6.77;;
16450;SDS011;12243;42.708;23.310;2023-04-03T00:38:38;8.80;;;6.50;;
16450;SDS011;12243;42.708;23.310;2023-04-03T00:41:07;11.33;;;7.80;;
16450;SDS011;12243;42.708;23.310;2023-04-03T00:43:34;12.17;;;7.27;;
16450;SDS011;12243;42.708;23.310;2023-04-03T00:46:01;9.40;;;7.03;;
16450;SDS011;12243;42.708;23.310;2023-04-03T00:48:29;9.10;;;6.50;;
16450;SDS011;12243;42.708;23.310;2023-04-03T00:50:58;10.57;;;7.03;;
16450;SDS011;12243;42.708;23.310;2023-04-03T00:53:28;11.27;;;6.40;;
16450;SDS011;12243;42.708;23.310;2023-04-03T00:55:57;8.27;;;6.37;;
16450;SDS011;12243;42.708;23.310;2023-04-03T00:58:28;7.70;;;6.13;;
16450;SDS011;12243;42.708;23.310;2023-04-03T01:01:00;10.10;;;6.30;;
16450;SDS011;12243;42.708;23.310;2023-04-03T01:03:31;9.60;;;6.70;;
16450;SDS011;12243;42.708;23.310;2023-04-03T01:06:01;8.87;;;6.60;;
16450;SDS011;12243;42.708;23.310;2023-04-03T01:08:29;7.97;;;5.90;;
16450;SDS011;12243;42.708;23.310;2023-04-03T01:10:59;10.17;;;6.13;;
16450;SDS011;12243;42.708;23.310;2023-04-03T01:13:29;7.43;;;4.93;;
16450;SDS011;12243;42.708;23.310;2023-04-03T01:15:57;5.00;;;4.20;;
16450;SDS011;12243;42.708;23.310;2023-04-03T01:18:27;6.30;;;4.30;;
16450;SDS011;12243;42.708;23.310;2023-04-03T01:23:58;4.63;;;3.50;;
16450;SDS011;12243;42.708;23.310;2023-04-03T01:26:32;5.70;;;4.00;;
16450;SDS011;12243;42.708;23.310;2023-04-03T01:29:02;4.23;;;3.70;;
16450;SDS011;12243;42.708;23.310;2023-04-03T01:31:32;3.93;;;3.17;;
16450;SDS011;12243;42.708;23.310;2023-04-03T01:34:16;4.23;;;2.90;;
16450;SDS011;12243;42.708;23.310;2023-04-03T01:36:43;4.17;;;3.50;;
16450;SDS011;12243;42.708;23.310;2023-04-03T01:39:11;4.50;;;3.13;;
16450;SDS011;12243;42.708;23.310;2023-04-03T01:41:38;3.67;;;3.10;;
16450;SDS011;12243;42.708;23.310;2023-04-03T01:44:13;3.30;;;3.00;;
16450;SDS011;12243;42.708;23.310;2023-04-03T01:46:40;3.63;;;3.23;;
16450;SDS011;12243;42.708;23.310;2023-04-03T01:49:07;3.47;;;3.17;;
16450;SDS011;12243;42.708;23.310;2023-04-03T01:51:36;3.80;;;3.10;;
16450;SDS011;12243;42.708;23.310;2023-04-03T01:54:03;4.03;;;3.20;;
16450;SDS011;12243;42.708;23.310;2023-04-03T01:56:30;4.00;;;3.20;;
16450;SDS011;12243;42.708;23.310;2023-04-03T01:58:57;3.83;;;3.07;;
16450;SDS011;12243;42.708;23.310;2023-04-03T02:01:24;3.50;;;2.90;;
16450;SDS011;12243;42.708;23.310;2023-04-03T02:03:52;3.23;;;2.93;;
16450;SDS011;12243;42.708;23.310;2023-04-03T02:06:19;3.70;;;3.10;;
16450;SDS011;12243;42.708;23.310;2023-04-03T02:08:47;3.60;;;3.00;;
16450;SDS011;12243;42.708;23.310;2023-04-03T02:11:14;2.70;;;2.50;;
16450;SDS011;12243;42.708;23.310;2023-04-03T02:13:41;2.40;;;2.20;;
16450;SDS011;12243;42.708;23.310;2023-04-03T02:16:08;2.73;;;2.53;;
16450;SDS011;12243;42.708;23.310;2023-04-03T02:18:37;6.07;;;2.60;;
16450;SDS011;12243;42.708;23.310;2023-04-03T02:21:04;9.07;;;2.67;;
16450;SDS011;12243;42.708;23.310;2023-04-03T02:23:32;2.40;;;2.20;;
16450;SDS011;12243;42.708;23.310;2023-04-03T02:26:06;3.33;;;2.50;;
16450;SDS011;12243;42.708;23.310;2023-04-03T02:28:35;2.60;;;2.40;;
16450;SDS011;12243;42.708;23.310;2023-04-03T02:31:02;2.77;;;2.53;;
16450;SDS011;12243;42.708;23.310;2023-04-03T02:33:30;2.90;;;2.60;;
16450;SDS011;12243;42.708;23.310;2023-04-03T02:35:57;3.23;;;3.03;;
16450;SDS011;12243;42.708;23.310;2023-04-03T02:38:24;3.67;;;3.37;;
16450;SDS011;12243;42.708;23.310;2023-04-03T02:40:53;4.53;;;3.40;;
16450;SDS011;12243;42.708;23.310;2023-04-03T02:43:22;5.60;;;3.47;;
16450;SDS011;12243;42.708;23.310;2023-04-03T02:45:49;5.23;;;3.60;;
16450;SDS011;12243;42.708;23.310;2023-04-03T02:48:16;3.30;;;3.00;;
16450;SDS011;12243;42.708;23.310;2023-04-03T02:50:43;4.93;;;3.40;;
16450;SDS011;12243;42.708;23.310;2023-04-03T02:53:10;4.47;;;3.23;;
16450;SDS011;12243;42.708;23.310;2023-04-03T02:55:36;6.97;;;3.47;;
16450;SDS011;12243;42.708;23.310;2023-04-03T02:58:03;3.30;;;3.10;;
16450;SDS011;12243;42.708;23.310;2023-04-03T03:00:32;3.53;;;3.23;;
16450;SDS011;12243;42.708;23.310;2023-04-03T03:02:59;5.87;;;3.23;;
16450;SDS011;12243;42.708;23.310;2023-04-03T03:05:27;4.23;;;3.83;;
16450;SDS011;12243;42.708;23.310;2023-04-03T03:07:54;5.10;;;3.83;;
16450;SDS011;12243;42.708;23.310;2023-04-03T03:10:21;6.33;;;4.37;;
16450;SDS011;12243;42.708;23.310;2023-04-03T03:12:49;5.80;;;3.80;;
16450;SDS011;12243;42.708;23.310;2023-04-03T03:15:16;6.60;;;4.73;;
16450;SDS011;12243;42.708;23.310;2023-04-03T03:17:46;5.83;;;4.20;;
16450;SDS011;12243;42.708;23.310;2023-04-03T03:20:13;7.07;;;4.17;;
16450;SDS011;12243;42.708;23.310;2023-04-03T03:22:40;5.43;;;3.97;;
16450;SDS011;12243;42.708;23.310;2023-04-03T03:25:08;6.97;;;4.10;;
16450;SDS011;12243;42.708;23.310;2023-04-03T03:27:35;6.87;;;4.00;;
16450;SDS011;12243;42.708;23.310;2023-04-03T03:30:03;8.27;;;4.20;;
16450;SDS011;12243;42.708;23.310;2023-04-03T03:32:31;5.13;;;3.77;;
16450;SDS011;12243;42.708;23.310;2023-04-03T03:35:02;4.77;;;3.97;;
16450;SDS011;12243;42.708;23.310;2023-04-03T03:37:29;5.37;;;4.10;;
16450;SDS011;12243;42.708;23.310;2023-04-03T03:39:56;9.47;;;4.73;;
16450;SDS011;12243;42.708;23.310;2023-04-03T03:42:23;9.57;;;5.20;;
16450;SDS011;12243;42.708;23.310;2023-04-03T03:44:50;6.87;;;5.63;;
16450;SDS011;12243;42.708;23.310;2023-04-03T03:47:18;8.20;;;6.20;;
16450;SDS011;12243;42.708;23.310;2023-04-03T03:49:46;9.87;;;5.80;;
16450;SDS011;12243;42.708;23.310;2023-04-03T03:52:15;10.47;;;6.50;;
16450;SDS011;12243;42.708;23.310;2023-04-03T03:54:42;7.67;;;6.10;;
16450;SDS011;12243;42.708;23.310;2023-04-03T03:57:10;10.80;;;6.47;;
16450;SDS011;12243;42.708;23.310;2023-04-03T03:59:37;9.87;;;6.80;;
16450;SDS011;12243;42.708;23.310;2023-04-03T04:02:06;12.37;;;6.83;;
16450;SDS011;12243;42.708;23.310;2023-04-03T04:04:33;9.87;;;6.40;;
16450;SDS011;12243;42.708;23.310;2023-04-03T04:07:00;9.60;;;6.93;;
16450;SDS011;12243;42.708;23.310;2023-04-03T04:09:29;15.13;;;8.47;;
16450;SDS011;12243;42.708;23.310;2023-04-03T04:11:56;10.17;;;7.57;;
16450;SDS011;12243;42.708;23.310;2023-04-03T04:14:23;11.67;;;8.37;;
16450;SDS011;12243;42.708;23.310;2023-04-03T04:16:51;10.07;;;7.87;;
16450;SDS011;12243;42.708;23.310;2023-04-03T04:19:22;9.37;;;7.23;;
16450;SDS011;12243;42.708;23.310;2023-04-03T04:21:49;11.13;;;7.77;;
16450;SDS011;12243;42.708;23.310;2023-04-03T04:24:17;14.53;;;8.70;;
16450;SDS011;12243;42.708;23.310;2023-04-03T04:26:47;11.60;;;8.13;;
16450;SDS011;12243;42.708;23.310;2023-04-03T04:29:16;15.13;;;9.57;;
16450;SDS011;12243;42.708;23.310;2023-04-03T04:31:46;22.97;;;12.77;;
16450;SDS011;12243;42.708;23.310;2023-04-03T04:34:13;30.50;;;11.57;;
16450;SDS011;12243;42.708;23.310;2023-04-03T04:36:41;30.13;;;12.90;;
16450;SDS011;12243;42.708;23.310;2023-04-03T04:39:08;21.90;;;9.80;;
16450;SDS011;12243;42.708;23.310;2023-04-03T04:41:35;22.43;;;10.57;;
16450;SDS011;12243;42.708;23.310;2023-04-03T04:44:05;22.63;;;11.00;;
16450;SDS011;12243;42.708;23.310;2023-04-03T04:46:34;20.23;;;10.10;;
16450;SDS011;12243;42.708;23.310;2023-04-03T04:49:01;18.73;;;9.03;;
16450;SDS011;12243;42.708;23.310;2023-04-03T04:51:29;19.60;;;8.90;;
16450;SDS011;12243;42.708;23.310;2023-04-03T04:53:57;13.67;;;8.50;;
16450;SDS011;12243;42.708;23.310;2023-04-03T04:56:24;16.63;;;8.93;;
16450;SDS011;12243;42.708;23.310;2023-04-03T04:58:54;18.10;;;9.23;;
16450;SDS011;12243;42.708;23.310;2023-04-03T05:01:23;20.63;;;9.10;;
16450;SDS011;12243;42.708;23.310;2023-04-03T05:03:58;23.53;;;9.33;;
16450;SDS011;12243;42.708;23.310;2023-04-03T05:06:25;20.60;;;9.47;;
16450;SDS011;12243;42.708;23.310;2023-04-03T05:08:54;21.70;;;9.23;;
16450;SDS011;12243;42.708;23.310;2023-04-03T05:11:23;43.97;;;17.23;;
16450;SDS011;12243;42.708;23.310;2023-04-03T05:13:51;39.17;;;17.13;;
16450;SDS011;12243;42.708;23.310;2023-04-03T05:16:21;27.07;;;13.27;;
16450;SDS011;12243;42.708;23.310;2023-04-03T05:18:49;23.43;;;13.40;;
16450;SDS011;12243;42.708;23.310;2023-04-03T05:21:19;22.60;;;13.10;;
16450;SDS011;12243;42.708;23.310;2023-04-03T05:23:49;25.43;;;13.00;;
16450;SDS011;12243;42.708;23.310;2023-04-03T05:26:16;20.90;;;11.70;;
16450;SDS011;12243;42.708;23.310;2023-04-03T05:28:47;19.77;;;11.33;;
16450;SDS011;12243;42.708;23.310;2023-04-03T05:31:15;22.93;;;11.10;;
16450;SDS011;12243;42.708;23.310;2023-04-03T05:33:42;18.53;;;10.53;;
16450;SDS011;12243;42.708;23.310;2023-04-03T05:36:16;24.13;;;11.53;;
16450;SDS011;12243;42.708;23.310;2023-04-03T05:38:46;19.93;;;11.30;;
16450;SDS011;12243;42.708;23.310;2023-04-03T05:41:14;19.43;;;11.73;;
16450;SDS011;12243;42.708;23.310;2023-04-03T05:43:44;27.17;;;14.63;;
16450;SDS011;12243;42.708;23.310;2023-04-03T05:46:11;38.03;;;13.97;;
16450;SDS011;12243;42.708;23.310;2023-04-03T05:48:40;30.20;;;13.30;;
16450;SDS011;12243;42.708;23.310;2023-04-03T05:51:13;21.57;;;12.30;;
16450;SDS011;12243;42.708;23.310;2023-04-03T05:53:46;27.23;;;14.03;;
16450;SDS011;12243;42.708;23.310;2023-04-03T05:56:14;21.40;;;13.50;;
16450;SDS011;12243;42.708;23.310;2023-04-03T05:58:41;22.27;;;14.37;;
16450;SDS011;12243;42.708;23.310;2023-04-03T06:01:08;22.80;;;13.23;;
16450;SDS011;12243;42.708;23.310;2023-04-03T06:03:37;23.20;;;12.97;;
16450;SDS011;12243;42.708;23.310;2023-04-03T06:06:05;28.40;;;13.43;;
16450;SDS011;12243;42.708;23.310;2023-04-03T06:08:34;18.77;;;12.03;;
16450;SDS011;12243;42.708;23.310;2023-04-03T06:11:01;17.83;;;11.63;;
16450;SDS011;12243;42.708;23.310;2023-04-03T06:13:28;14.17;;;9.43;;
16450;SDS011;12243;42.708;23.310;2023-04-03T06:15:55;12.37;;;8.00;;
16450;SDS011;12243;42.708;23.310;2023-04-03T06:18:23;15.10;;;8.97;;
16450;SDS011;12243;42.708;23.310;2023-04-03T06:20:50;12.20;;;7.83;;
16450;SDS011;12243;42.708;23.310;2023-04-03T06:23:18;13.53;;;8.27;;
16450;SDS011;12243;42.708;23.310;2023-04-03T06:25:47;11.97;;;7.20;;
16450;SDS011;12243;42.708;23.310;2023-04-03T06:28:14;11.13;;;7.37;;
16450;SDS011;12243;42.708;23.310;2023-04-03T06:30:41;10.00;;;7.13;;
16450;SDS011;12243;42.708;23.310;2023-04-03T06:33:08;16.20;;;10.53;;
16450;SDS011;12243;42.708;23.310;2023-04-03T06:35:35;13.30;;;10.90;;
16450;SDS011;12243;42.708;23.310;2023-04-03T06:38:03;10.63;;;7.70;;
16450;SDS011;12243;42.708;23.310;2023-04-03T06:40:34;8.67;;;7.10;;
16450;SDS011;12243;42.708;23.310;2023-04-03T06:43:03;9.93;;;8.30;;
16450;SDS011;12243;42.708;23.310;2023-04-03T06:45:31;12.17;;;7.83;;
16450;SDS011;12243;42.708;23.310;2023-04-03T06:47:58;12.33;;;8.53;;
16450;SDS011;12243;42.708;23.310;2023-04-03T06:50:25;15.90;;;9.73;;
16450;SDS011;12243;42.708;23.310;2023-04-03T06:52:52;98.70;;;40.93;;
16450;SDS011;12243;42.708;23.310;2023-04-03T06:55:19;19.23;;;10.87;;
16450;SDS011;12243;42.708;23.310;2023-04-03T06:57:46;10.53;;;8.20;;
16450;SDS011;12243;42.708;23.310;2023-04-03T07:00:16;16.77;;;10.93;;
16450;SDS011;12243;42.708;23.310;2023-04-03T07:02:43;16.27;;;10.63;;
16450;SDS011;12243;42.708;23.310;2023-04-03T07:05:10;16.70;;;10.07;;
16450;SDS011;12243;42.708;23.310;2023-04-03T07:07:38;15.67;;;10.67;;
16450;SDS011;12243;42.708;23.310;2023-04-03T07:10:06;18.90;;;11.00;;
16450;SDS011;12243;42.708;23.310;2023-04-03T07:12:35;18.37;;;11.90;;
16450;SDS011;12243;42.708;23.310;2023-04-03T07:15:03;20.07;;;13.13;;
16450;SDS011;12243;42.708;23.310;2023-04-03T07:17:32;15.30;;;10.60;;
16450;SDS011;12243;42.708;23.310;2023-04-03T07:19:59;21.73;;;10.53;;
16450;SDS011;12243;42.708;23.310;2023-04-03T07:22:30;18.97;;;11.03;;
16450;SDS011;12243;42.708;23.310;2023-04-03T07:24:57;16.17;;;11.07;;
16450;SDS011;12243;42.708;23.310;2023-04-03T07:27:25;20.97;;;10.83;;
16450;SDS011;12243;42.708;23.310;2023-04-03T07:29:52;19.60;;;9.50;;
16450;SDS011;12243;42.708;23.310;2023-04-03T07:32:21;19.53;;;9.60;;
16450;SDS011;12243;42.708;23.310;2023-04-03T07:34:50;19.27;;;10.73;;
16450;SDS011;12243;42.708;23.310;2023-04-03T07:37:16;14.30;;;8.40;;
16450;SDS011;12243;42.708;23.310;2023-04-03T07:39:44;16.27;;;9.57;;
16450;SDS011;12243;42.708;23.310;2023-04-03T07:42:11;20.40;;;9.83;;
16450;SDS011;12243;42.708;23.310;2023-04-03T07:44:38;17.90;;;10.17;;
16450;SDS011;12243;42.708;23.310;2023-04-03T07:47:05;19.47;;;10.80;;
16450;SDS011;12243;42.708;23.310;2023-04-03T07:49:33;18.60;;;10.47;;
16450;SDS011;12243;42.708;23.310;2023-04-03T07:52:04;14.97;;;10.20;;
16450;SDS011;12243;42.708;23.310;2023-04-03T07:54:32;18.00;;;10.37;;
16450;SDS011;12243;42.708;23.310;2023-04-03T07:57:00;15.23;;;9.67;;
16450;SDS011;12243;42.708;23.310;2023-04-03T07:59:27;21.33;;;9.33;;
16450;SDS011;12243;42.708;23.310;2023-04-03T08:01:54;17.50;;;8.63;;
16450;SDS011;12243;42.708;23.310;2023-04-03T08:04:21;14.70;;;8.87;;
16450;SDS011;12243;42.708;23.310;2023-04-03T08:06:48;10.47;;;7.60;;
16450;SDS011;12243;42.708;23.310;2023-04-03T08:09:16;11.27;;;7.40;;
16450;SDS011;12243;42.708;23.310;2023-04-03T08:11:44;14.70;;;8.43;;
16450;SDS011;12243;42.708;23.310;2023-04-03T08:14:12;14.13;;;8.40;;
16450;SDS011;12243;42.708;23.310;2023-04-03T08:16:44;12.60;;;8.27;;
16450;SDS011;12243;42.708;23.310;2023-04-03T08:19:12;16.70;;;8.57;;
16450;SDS011;12243;42.708;23.310;2023-04-03T08:21:41;14.23;;;9.33;;
16450;SDS011;12243;42.708;23.310;2023-04-03T08:24:07;15.07;;;9.27;;
16450;SDS011;12243;42.708;23.310;2023-04-03T08:26:36;11.60;;;8.63;;
16450;SDS011;12243;42.708;23.310;2023-04-03T08:29:03;21.80;;;9.43;;
16450;SDS011;12243;42.708;23.310;2023-04-03T08:31:30;14.87;;;10.53;;
16450;SDS011;12243;42.708;23.310;2023-04-03T08:33:57;19.00;;;9.67;;
16450;SDS011;12243;42.708;23.310;2023-04-03T08:36:25;15.03;;;9.73;;
16450;SDS011;12243;42.708;23.310;2023-04-03T08:38:54;15.77;;;10.67;;
16450;SDS011;12243;42.708;23.310;2023-04-03T08:41:25;20.90;;;10.57;;
16450;SDS011;12243;42.708;23.310;2023-04-03T08:44:00;16.57;;;10.33;;
16450;SDS011;12243;42.708;23.310;2023-04-03T08:46:40;16.47;;;9.30;;
16450;SDS011;12243;42.708;23.310;2023-04-03T08:49:21;18.63;;;9.63;;
16450;SDS011;12243;42.708;23.310;2023-04-03T08:51:53;23.17;;;10.97;;
16450;SDS011;12243;42.708;23.310;2023-04-03T08:54:23;16.27;;;10.40;;
16450;SDS011;12243;42.708;23.310;2023-04-03T08:56:54;24.37;;;12.37;;
16450;SDS011;12243;42.708;23.310;2023-04-03T08:59:26;15.63;;;10.77;;
16450;SDS011;12243;42.708;23.310;2023-04-03T09:01:56;19.07;;;11.20;;
16450;SDS011;12243;42.708;23.310;2023-04-03T09:04:25;15.60;;;10.90;;
16450;SDS011;12243;42.708;23.310;2023-04-03T09:06:55;13.90;;;9.43;;
16450;SDS011;12243;42.708;23.310;2023-04-03T09:09:30;18.37;;;10.60;;
16450;SDS011;12243;42.708;23.310;2023-04-03T09:12:04;17.50;;;11.37;;
16450;SDS011;12243;42.708;23.310;2023-04-03T09:14:42;18.30;;;11.50;;
16450;SDS011;12243;42.708;23.310;2023-04-03T09:17:17;16.53;;;10.40;;
16450;SDS011;12243;42.708;23.310;2023-04-03T09:19:54;14.47;;;11.20;;
16450;SDS011;12243;42.708;23.310;2023-04-03T09:22:25;29.90;;;17.37;;
16450;SDS011;12243;42.708;23.310;2023-04-03T09:24:55;23.83;;;13.27;;
16450;SDS011;12243;42.708;23.310;2023-04-03T09:27:26;19.23;;;11.43;;
16450;SDS011;12243;42.708;23.310;2023-04-03T09:29:54;21.00;;;13.37;;
16450;SDS011;12243;42.708;23.310;2023-04-03T09:32:25;16.80;;;10.37;;
16450;SDS011;12243;42.708;23.310;2023-04-03T09:34:55;21.30;;;11.77;;
16450;SDS011;12243;42.708;23.310;2023-04-03T09:37:37;22.17;;;12.00;;
16450;SDS011;12243;42.708;23.310;2023-04-03T09:40:27;20.30;;;11.20;;
16450;SDS011;12243;42.708;23.310;2023-04-03T09:42:57;19.17;;;11.70;;
16450;SDS011;12243;42.708;23.310;2023-04-03T09:45:28;16.73;;;12.57;;
16450;SDS011;12243;42.708;23.310;2023-04-03T09:48:07;28.70;;;12.53;;
16450;SDS011;12243;42.708;23.310;2023-04-03T09:50:35;20.50;;;12.03;;
16450;SDS011;12243;42.708;23.310;2023-04-03T09:53:07;18.23;;;11.17;;
16450;SDS011;12243;42.708;23.310;2023-04-03T09:55:52;18.43;;;12.80;;
16450;SDS011;12243;42.708;23.310;2023-04-03T09:58:23;18.13;;;11.03;;
16450;SDS011;12243;42.708;23.310;2023-04-03T10:00:57;17.97;;;11.47;;
16450;SDS011;12243;42.708;23.310;2023-04-03T10:03:28;18.83;;;11.40;;
16450;SDS011;12243;42.708;23.310;2023-04-03T10:05:56;17.83;;;11.33;;
16450;SDS011;12243;42.708;23.310;2023-04-03T10:08:25;18.73;;;10.93;;
16450;SDS011;12243;42.708;23.310;2023-04-03T10:11:09;23.90;;;12.27;;
16450;SDS011;12243;42.708;23.310;2023-04-03T10:13:49;18.03;;;11.70;;
16450;SDS011;12243;42.708;23.310;2023-04-03T10:16:19;17.70;;;13.20;;
16450;SDS011;12243;42.708;23.310;2023-04-03T10:18:55;18.77;;;10.87;;
16450;SDS011;12243;42.708;23.310;2023-04-03T10:21:32;15.17;;;11.30;;
16450;SDS011;12243;42.708;23.310;2023-04-03T10:24:06;16.80;;;11.23;;
16450;SDS011;12243;42.708;23.310;2023-04-03T10:26:39;20.03;;;15.67;;
16450;SDS011;12243;42.708;23.310;2023-04-03T10:29:17;24.93;;;12.57;;
16450;SDS011;12243;42.708;23.310;2023-04-03T10:31:57;17.53;;;12.17;;
16450;SDS011;12243;42.708;23.310;2023-04-03T10:34:30;39.10;;;23.43;;
16450;SDS011;12243;42.708;23.310;2023-04-03T10:37:01;16.77;;;9.93;;
16450;SDS011;12243;42.708;23.310;2023-04-03T10:39:38;17.77;;;9.13;;
16450;SDS011;12243;42.708;23.310;2023-04-03T10:42:15;12.73;;;7.93;;
16450;SDS011;12243;42.708;23.310;2023-04-03T10:45:03;9.40;;;7.50;;
16450;SDS011;12243;42.708;23.310;2023-04-03T10:47:48;7.57;;;6.43;;
16450;SDS011;12243;42.708;23.310;2023-04-03T10:50:27;11.83;;;5.97;;
16450;SDS011;12243;42.708;23.310;2023-04-03T10:53:06;10.13;;;7.17;;
16450;SDS011;12243;42.708;23.310;2023-04-03T10:55:40;15.03;;;8.50;;
16450;SDS011;12243;42.708;23.310;2023-04-03T10:58:17;9.77;;;7.87;;
16450;SDS011;12243;42.708;23.310;2023-04-03T11:00:50;13.47;;;8.97;;
16450;SDS011;12243;42.708;23.310;2023-04-03T11:03:26;11.70;;;7.00;;
16450;SDS011;12243;42.708;23.310;2023-04-03T11:05:57;11.83;;;7.20;;
16450;SDS011;12243;42.708;23.310;2023-04-03T11:08:28;13.10;;;8.73;;
16450;SDS011;12243;42.708;23.310;2023-04-03T11:10:59;9.73;;;6.60;;
16450;SDS011;12243;42.708;23.310;2023-04-03T11:13:31;12.80;;;5.53;;
16450;SDS011;12243;42.708;23.310;2023-04-03T11:16:00;11.90;;;6.80;;
16450;SDS011;12243;42.708;23.310;2023-04-03T11:18:33;11.23;;;6.30;;
16450;SDS011;12243;42.708;23.310;2023-04-03T11:21:07;7.27;;;5.23;;
16450;SDS011;12243;42.708;23.310;2023-04-03T11:23:40;11.17;;;7.13;;
16450;SDS011;12243;42.708;23.310;2023-04-03T11:26:10;20.63;;;11.20;;
16450;SDS011;12243;42.708;23.310;2023-04-03T11:28:39;11.40;;;7.73;;
16450;SDS011;12243;42.708;23.310;2023-04-03T11:31:10;16.37;;;8.37;;
16450;SDS011;12243;42.708;23.310;2023-04-03T11:33:47;22.60;;;13.40;;
16450;SDS011;12243;42.708;23.310;2023-04-03T11:36:22;9.07;;;6.10;;
16450;SDS011;12243;42.708;23.310;2023-04-03T11:38:52;4.67;;;4.13;;
16450;SDS011;12243;42.708;23.310;2023-04-03T11:41:25;4.67;;;4.27;;
16450;SDS011;12243;42.708;23.310;2023-04-03T11:43:58;4.63;;;4.13;;
16450;SDS011;12243;42.708;23.310;2023-04-03T11:58:20;4.20;;;3.80;;
16450;SDS011;12243;42.708;23.310;2023-04-03T12:00:53;3.67;;;3.37;;
16450;SDS011;12243;42.708;23.310;2023-04-03T12:03:32;5.80;;;4.40;;
16450;SDS011;12243;42.708;23.310;2023-04-03T12:09:26;10.47;;;8.00;;
16450;SDS011;12243;42.708;23.310;2023-04-03T12:11:56;5.07;;;4.57;;
16450;SDS011;12243;42.708;23.310;2023-04-03T12:14:25;7.70;;;6.07;;
16450;SDS011;12243;42.708;23.310;2023-04-03T12:16:54;12.80;;;6.27;;
16450;SDS011;12243;42.708;23.310;2023-04-03T12:19:35;6.17;;;4.70;;
16450;SDS011;12243;42.708;23.310;2023-04-03T12:22:10;7.63;;;5.10;;
16450;SDS011;12243;42.708;23.310;2023-04-03T12:24:41;8.03;;;6.03;;
16450;SDS011;12243;42.708;23.310;2023-04-03T12:27:14;9.10;;;6.07;;
16450;SDS011;12243;42.708;23.310;2023-04-03T12:29:51;9.47;;;6.40;;
16450;SDS011;12243;42.708;23.310;2023-04-03T12:32:41;7.70;;;5.10;;
16450;SDS011;12243;42.708;23.310;2023-04-03T12:35:24;14.00;;;9.93;;
16450;SDS011;12243;42.708;23.310;2023-04-03T12:41:08;5.87;;;5.13;;
16450;SDS011;12243;42.708;23.310;2023-04-03T12:43:47;8.33;;;6.53;;
16450;SDS011;12243;42.708;23.310;2023-04-03T12:46:26;5.80;;;5.10;;
16450;SDS011;12243;42.708;23.310;2023-04-03T12:48:59;3.97;;;3.67;;
16450;SDS011;12243;42.708;23.310;2023-04-03T12:51:28;5.37;;;4.20;;
16450;SDS011;12243;42.708;23.310;2023-04-03T12:54:04;7.63;;;4.80;;
16450;SDS011;12243;42.708;23.310;2023-04-03T12:56:43;4.37;;;4.07;;
16450;SDS011;12243;42.708;23.310;2023-04-03T12:59:14;5.17;;;4.67;;
16450;SDS011;12243;42.708;23.310;2023-04-03T13:01:43;6.50;;;4.57;;
16450;SDS011;12243;42.708;23.310;2023-04-03T13:04:10;5.53;;;5.00;;
16450;SDS011;12243;42.708;23.310;2023-04-03T13:06:39;5.03;;;4.53;;
16450;SDS011;12243;42.708;23.310;2023-04-03T13:09:17;5.00;;;4.53;;
16450;SDS011;12243;42.708;23.310;2023-04-03T13:11:49;6.53;;;5.43;;
16450;SDS011;12243;42.708;23.310;2023-04-03T13:14:19;6.93;;;6.23;;
16450;SDS011;12243;42.708;23.310;2023-04-03T13:16:53;5.83;;;5.37;;
16450;SDS011;12243;42.708;23.310;2023-04-03T13:19:22;8.63;;;5.77;;
16450;SDS011;12243;42.708;23.310;2023-04-03T13:21:51;7.77;;;6.97;;
16450;SDS011;12243;42.708;23.310;2023-04-03T13:24:26;8.40;;;6.83;;
16450;SDS011;12243;42.708;23.310;2023-04-03T13:26:56;10.67;;;6.97;;
16450;SDS011;12243;42.708;23.310;2023-04-03T13:29:25;11.13;;;6.67;;
16450;SDS011;12243;42.708;23.310;2023-04-03T13:31:54;14.40;;;9.40;;
16450;SDS011;12243;42.708;23.310;2023-04-03T13:34:22;10.40;;;8.00;;
16450;SDS011;12243;42.708;23.310;2023-04-03T13:36:56;8.07;;;7.37;;
16450;SDS011;12243;42.708;23.310;2023-04-03T13:39:25;6.90;;;6.20;;
16450;SDS011;12243;42.708;23.310;2023-04-03T13:41:54;7.70;;;6.77;;
16450;SDS011;12243;42.708;23.310;2023-04-03T13:44:28;8.07;;;7.27;;
16450;SDS011;12243;42.708;23.310;2023-04-03T13:47:01;9.23;;;8.23;;
16450;SDS011;12243;42.708;23.310;2023-04-03T13:49:43;9.67;;;7.23;;
16450;SDS011;12243;42.708;23.310;2023-04-03T13:52:20;8.73;;;7.83;;
16450;SDS011;12243;42.708;23.310;2023-04-03T13:54:51;13.10;;;10.17;;
16450;SDS011;12243;42.708;23.310;2023-04-03T13:57:21;11.47;;;10.27;;
16450;SDS011;12243;42.708;23.310;2023-04-03T13:59:50;10.23;;;8.73;;
16450;SDS011;12243;42.708;23.310;2023-04-03T14:02:20;10.30;;;9.03;;
16450;SDS011;12243;42.708;23.310;2023-04-03T14:04:50;10.00;;;8.67;;
16450;SDS011;12243;42.708;23.310;2023-04-03T14:07:23;14.40;;;10.23;;
16450;SDS011;12243;42.708;23.310;2023-04-03T14:09:51;11.27;;;10.17;;
16450;SDS011;12243;42.708;23.310;2023-04-03T14:12:21;11.60;;;9.50;;
16450;SDS011;12243;42.708;23.310;2023-04-03T14:14:54;11.50;;;10.37;;
16450;SDS011;12243;42.708;23.310;2023-04-03T14:17:23;13.10;;;10.43;;
16450;SDS011;12243;42.708;23.310;2023-04-03T14:19:53;14.63;;;12.17;;
16450;SDS011;12243;42.708;23.310;2023-04-03T14:22:23;13.40;;;11.60;;
16450;SDS011;12243;42.708;23.310;2023-04-03T14:24:51;21.50;;;17.70;;
16450;SDS011;12243;42.708;23.310;2023-04-03T14:27:20;10.20;;;9.10;;
16450;SDS011;12243;42.708;23.310;2023-04-03T14:29:49;7.80;;;7.10;;
16450;SDS011;12243;42.708;23.310;2023-04-03T14:32:19;7.43;;;6.53;;
16450;SDS011;12243;42.708;23.310;2023-04-03T14:34:48;7.50;;;6.57;;
16450;SDS011;12243;42.708;23.310;2023-04-03T14:37:17;9.83;;;8.87;;
16450;SDS011;12243;42.708;23.310;2023-04-03T14:39:47;6.30;;;5.60;;
16450;SDS011;12243;42.708;23.310;2023-04-03T14:42:16;10.27;;;7.00;;
16450;SDS011;12243;42.708;23.310;2023-04-03T14:44:46;14.83;;;13.43;;
16450;SDS011;12243;42.708;23.310;2023-04-03T14:47:14;20.87;;;19.07;;
16450;SDS011;12243;42.708;23.310;2023-04-03T14:49:45;18.53;;;16.73;;
16450;SDS011;12243;42.708;23.310;2023-04-03T14:52:16;12.23;;;10.93;;
16450;SDS011;12243;42.708;23.310;2023-04-03T14:54:46;9.33;;;8.13;;
16450;SDS011;12243;42.708;23.310;2023-04-03T14:57:14;11.47;;;8.03;;
16450;SDS011;12243;42.708;23.310;2023-04-03T14:59:42;11.30;;;8.17;;
16450;SDS011;12243;42.708;23.310;2023-04-03T15:02:13;10.20;;;9.20;;